sensor_id;sensor_type;location;lat;lon;timestamp;P1;durP1;ratioP1;P2;durP2;ratioP2
75207;SDS011;63795;55.684;37.864;2023-06-22T00:00:20;21.90;;;8.40;;
75207;SDS011;63795;55.684;37.864;2023-06-22T00:05:21;18.77;;;8.82;;
75207;SDS011;63795;55.684;37.864;2023-06-22T00:10:22;18.30;;;6.43;;
75207;SDS011;63795;55.684;37.864;2023-06-22T00:15:22;13.25;;;9.35;;
75207;SDS011;63795;55.684;37.864;2023-06-22T00:20:23;17.30;;;6.95;;
75207;SDS011;63795;55.684;37.864;2023-06-22T00:25:27;18.02;;;7.60;;
75207;SDS011;63795;55.684;37.864;2023-06-22T00:30:28;25.57;;;9.33;;
75207;SDS011;63795;55.684;37.864;2023-06-22T00:35:28;16.60;;;7.03;;
75207;SDS011;63795;55.684;37.864;2023-06-22T00:40:29;18.33;;;8.98;;
75207;SDS011;63795;55.684;37.864;2023-06-22T00:45:31;19.65;;;7.55;;
75207;SDS011;63795;55.684;37.864;2023-06-22T00:50:32;13.90;;;7.18;;
75207;SDS011;63795;55.684;37.864;2023-06-22T00:55:41;12.10;;;5.78;;
75207;SDS011;63795;55.684;37.864;2023-06-22T01:00:47;14.02;;;6.38;;
75207;SDS011;63795;55.684;37.864;2023-06-22T01:05:48;20.77;;;7.45;;
75207;SDS011;63795;55.684;37.864;2023-06-22T01:10:54;15.15;;;6.95;;
75207;SDS011;63795;55.684;37.864;2023-06-22T01:16:02;14.73;;;6.68;;
75207;SDS011;63795;55.684;37.864;2023-06-22T01:21:05;15.88;;;7.78;;
75207;SDS011;63795;55.684;37.864;2023-06-22T01:26:12;10.32;;;6.90;;
75207;SDS011;63795;55.684;37.864;2023-06-22T01:31:22;11.52;;;6.28;;
75207;SDS011;63795;55.684;37.864;2023-06-22T01:36:24;17.15;;;7.30;;
75207;SDS011;63795;55.684;37.864;2023-06-22T01:41:26;8.75;;;6.18;;
75207;SDS011;63795;55.684;37.864;2023-06-22T01:46:29;11.27;;;6.60;;
75207;SDS011;63795;55.684;37.864;2023-06-22T01:51:30;17.20;;;7.05;;
75207;SDS011;63795;55.684;37.864;2023-06-22T01:56:30;15.50;;;7.13;;
75207;SDS011;63795;55.684;37.864;2023-06-22T02:01:33;17.17;;;6.20;;
75207;SDS011;63795;55.684;37.864;2023-06-22T02:06:42;14.40;;;6.95;;
75207;SDS011;63795;55.684;37.864;2023-06-22T02:11:46;18.02;;;6.72;;
75207;SDS011;63795;55.684;37.864;2023-06-22T02:16:49;13.18;;;7.40;;
75207;SDS011;63795;55.684;37.864;2023-06-22T02:21:51;10.20;;;4.63;;
75207;SDS011;63795;55.684;37.864;2023-06-22T02:26:52;11.93;;;7.38;;
75207;SDS011;63795;55.684;37.864;2023-06-22T02:31:52;13.67;;;8.00;;
75207;SDS011;63795;55.684;37.864;2023-06-22T02:36:53;14.80;;;9.10;;
75207;SDS011;63795;55.684;37.864;2023-06-22T02:41:54;16.73;;;7.65;;
75207;SDS011;63795;55.684;37.864;2023-06-22T02:46:55;13.35;;;8.70;;
75207;SDS011;63795;55.684;37.864;2023-06-22T02:51:55;13.00;;;7.75;;
75207;SDS011;63795;55.684;37.864;2023-06-22T02:56:57;17.35;;;7.45;;
75207;SDS011;63795;55.684;37.864;2023-06-22T03:01:57;17.75;;;7.90;;
75207;SDS011;63795;55.684;37.864;2023-06-22T03:06:58;10.52;;;6.13;;
75207;SDS011;63795;55.684;37.864;2023-06-22T03:12:01;15.10;;;7.95;;
75207;SDS011;63795;55.684;37.864;2023-06-22T03:17:02;10.93;;;8.15;;
75207;SDS011;63795;55.684;37.864;2023-06-22T03:22:04;15.02;;;10.82;;
75207;SDS011;63795;55.684;37.864;2023-06-22T03:27:04;14.45;;;10.77;;
75207;SDS011;63795;55.684;37.864;2023-06-22T03:32:06;16.27;;;7.75;;
75207;SDS011;63795;55.684;37.864;2023-06-22T03:37:07;18.90;;;8.77;;
75207;SDS011;63795;55.684;37.864;2023-06-22T03:42:07;19.45;;;10.95;;
75207;SDS011;63795;55.684;37.864;2023-06-22T03:47:08;19.02;;;8.00;;
75207;SDS011;63795;55.684;37.864;2023-06-22T03:52:09;18.13;;;7.38;;
75207;SDS011;63795;55.684;37.864;2023-06-22T03:57:10;13.23;;;7.63;;
75207;SDS011;63795;55.684;37.864;2023-06-22T04:02:11;16.55;;;6.50;;
75207;SDS011;63795;55.684;37.864;2023-06-22T04:07:12;16.63;;;6.35;;
75207;SDS011;63795;55.684;37.864;2023-06-22T04:12:12;10.75;;;5.40;;
75207;SDS011;63795;55.684;37.864;2023-06-22T04:17:13;14.00;;;4.65;;
75207;SDS011;63795;55.684;37.864;2023-06-22T04:22:14;11.27;;;4.70;;
75207;SDS011;63795;55.684;37.864;2023-06-22T04:27:14;13.00;;;5.07;;
75207;SDS011;63795;55.684;37.864;2023-06-22T04:32:15;8.27;;;4.60;;
75207;SDS011;63795;55.684;37.864;2023-06-22T04:37:18;9.77;;;3.75;;
75207;SDS011;63795;55.684;37.864;2023-06-22T04:42:18;6.10;;;2.35;;
75207;SDS011;63795;55.684;37.864;2023-06-22T04:47:19;9.60;;;3.67;;
75207;SDS011;63795;55.684;37.864;2023-06-22T04:52:20;9.70;;;3.60;;
75207;SDS011;63795;55.684;37.864;2023-06-22T04:57:21;6.05;;;2.97;;
75207;SDS011;63795;55.684;37.864;2023-06-22T05:02:30;8.10;;;5.22;;
75207;SDS011;63795;55.684;37.864;2023-06-22T05:07:34;8.65;;;4.10;;
75207;SDS011;63795;55.684;37.864;2023-06-22T05:12:35;10.70;;;4.88;;
75207;SDS011;63795;55.684;37.864;2023-06-22T05:17:36;9.43;;;4.35;;
75207;SDS011;63795;55.684;37.864;2023-06-22T05:22:41;11.48;;;4.68;;
75207;SDS011;63795;55.684;37.864;2023-06-22T05:32:44;9.55;;;4.63;;
75207;SDS011;63795;55.684;37.864;2023-06-22T05:37:44;8.15;;;5.13;;
75207;SDS011;63795;55.684;37.864;2023-06-22T05:42:45;5.65;;;3.58;;
75207;SDS011;63795;55.684;37.864;2023-06-22T05:47:45;7.03;;;5.13;;
75207;SDS011;63795;55.684;37.864;2023-06-22T05:52:46;5.13;;;2.35;;
75207;SDS011;63795;55.684;37.864;2023-06-22T05:57:46;3.70;;;3.23;;
75207;SDS011;63795;55.684;37.864;2023-06-22T06:02:47;11.45;;;2.75;;
75207;SDS011;63795;55.684;37.864;2023-06-22T06:07:49;8.02;;;2.70;;
75207;SDS011;63795;55.684;37.864;2023-06-22T06:12:49;4.55;;;1.27;;
75207;SDS011;63795;55.684;37.864;2023-06-22T06:17:51;3.92;;;2.03;;
75207;SDS011;63795;55.684;37.864;2023-06-22T06:22:52;6.00;;;2.22;;
75207;SDS011;63795;55.684;37.864;2023-06-22T06:27:53;8.13;;;2.17;;
75207;SDS011;63795;55.684;37.864;2023-06-22T06:32:56;8.63;;;4.20;;
75207;SDS011;63795;55.684;37.864;2023-06-22T06:37:57;4.93;;;2.53;;
75207;SDS011;63795;55.684;37.864;2023-06-22T06:42:58;5.30;;;3.70;;
75207;SDS011;63795;55.684;37.864;2023-06-22T06:47:58;7.30;;;4.18;;
75207;SDS011;63795;55.684;37.864;2023-06-22T06:52:58;5.47;;;3.67;;
75207;SDS011;63795;55.684;37.864;2023-06-22T06:57:59;4.20;;;1.38;;
75207;SDS011;63795;55.684;37.864;2023-06-22T07:02:59;5.82;;;3.50;;
75207;SDS011;63795;55.684;37.864;2023-06-22T07:08:00;4.30;;;2.87;;
75207;SDS011;63795;55.684;37.864;2023-06-22T07:13:01;5.15;;;3.80;;
75207;SDS011;63795;55.684;37.864;2023-06-22T07:18:02;5.72;;;2.55;;
75207;SDS011;63795;55.684;37.864;2023-06-22T07:23:02;3.85;;;2.83;;
75207;SDS011;63795;55.684;37.864;2023-06-22T07:28:04;6.55;;;3.72;;
75207;SDS011;63795;55.684;37.864;2023-06-22T07:33:05;3.45;;;2.08;;
75207;SDS011;63795;55.684;37.864;2023-06-22T07:38:08;3.45;;;2.38;;
75207;SDS011;63795;55.684;37.864;2023-06-22T07:43:09;6.38;;;3.22;;
75207;SDS011;63795;55.684;37.864;2023-06-22T07:48:09;7.53;;;4.43;;
75207;SDS011;63795;55.684;37.864;2023-06-22T07:53:10;4.50;;;2.50;;
75207;SDS011;63795;55.684;37.864;2023-06-22T07:58:10;6.57;;;2.77;;
75207;SDS011;63795;55.684;37.864;2023-06-22T08:03:11;7.72;;;2.95;;
75207;SDS011;63795;55.684;37.864;2023-06-22T08:08:11;3.63;;;2.88;;
75207;SDS011;63795;55.684;37.864;2023-06-22T08:13:12;6.30;;;3.13;;
75207;SDS011;63795;55.684;37.864;2023-06-22T08:18:12;4.20;;;3.15;;
75207;SDS011;63795;55.684;37.864;2023-06-22T08:23:13;4.00;;;3.65;;
75207;SDS011;63795;55.684;37.864;2023-06-22T08:28:13;8.48;;;4.88;;
75207;SDS011;63795;55.684;37.864;2023-06-22T08:33:14;4.20;;;3.75;;
75207;SDS011;63795;55.684;37.864;2023-06-22T08:38:14;5.30;;;3.05;;
75207;SDS011;63795;55.684;37.864;2023-06-22T08:43:15;6.18;;;4.40;;
75207;SDS011;63795;55.684;37.864;2023-06-22T08:48:16;3.63;;;2.78;;
75207;SDS011;63795;55.684;37.864;2023-06-22T08:53:16;5.70;;;2.50;;
75207;SDS011;63795;55.684;37.864;2023-06-22T08:58:17;5.97;;;2.03;;
75207;SDS011;63795;55.684;37.864;2023-06-22T09:08:20;4.45;;;2.20;;
75207;SDS011;63795;55.684;37.864;2023-06-22T09:13:21;6.03;;;3.53;;
75207;SDS011;63795;55.684;37.864;2023-06-22T09:23:22;8.17;;;3.00;;
75207;SDS011;63795;55.684;37.864;2023-06-22T09:28:23;6.22;;;3.00;;
75207;SDS011;63795;55.684;37.864;2023-06-22T09:33:24;7.10;;;4.15;;
75207;SDS011;63795;55.684;37.864;2023-06-22T09:38:25;4.35;;;1.63;;
75207;SDS011;63795;55.684;37.864;2023-06-22T09:43:26;4.47;;;4.07;;
75207;SDS011;63795;55.684;37.864;2023-06-22T09:48:28;8.23;;;3.10;;
75207;SDS011;63795;55.684;37.864;2023-06-22T09:53:30;4.70;;;3.28;;
75207;SDS011;63795;55.684;37.864;2023-06-22T09:58:30;5.70;;;3.13;;
75207;SDS011;63795;55.684;37.864;2023-06-22T10:03:31;6.05;;;3.60;;
75207;SDS011;63795;55.684;37.864;2023-06-22T10:08:31;5.03;;;4.38;;
75207;SDS011;63795;55.684;37.864;2023-06-22T10:13:32;5.00;;;2.40;;
75207;SDS011;63795;55.684;37.864;2023-06-22T10:18:32;6.07;;;2.38;;
75207;SDS011;63795;55.684;37.864;2023-06-22T10:23:33;5.25;;;3.13;;
75207;SDS011;63795;55.684;37.864;2023-06-22T10:28:33;6.07;;;2.60;;
75207;SDS011;63795;55.684;37.864;2023-06-22T10:33:34;5.85;;;3.15;;
75207;SDS011;63795;55.684;37.864;2023-06-22T10:38:34;3.95;;;3.05;;
75207;SDS011;63795;55.684;37.864;2023-06-22T10:48:35;6.40;;;2.83;;
75207;SDS011;63795;55.684;37.864;2023-06-22T10:53:36;3.45;;;2.05;;
75207;SDS011;63795;55.684;37.864;2023-06-22T10:58:36;8.05;;;2.60;;
75207;SDS011;63795;55.684;37.864;2023-06-22T11:03:37;6.65;;;1.55;;
75207;SDS011;63795;55.684;37.864;2023-06-22T11:08:37;4.43;;;3.53;;
75207;SDS011;63795;55.684;37.864;2023-06-22T11:18:38;5.60;;;2.87;;
75207;SDS011;63795;55.684;37.864;2023-06-22T11:28:39;4.53;;;3.03;;
75207;SDS011;63795;55.684;37.864;2023-06-22T11:33:39;9.38;;;4.80;;
75207;SDS011;63795;55.684;37.864;2023-06-22T11:43:40;5.15;;;3.83;;
75207;SDS011;63795;55.684;37.864;2023-06-22T11:53:41;4.80;;;2.63;;
75207;SDS011;63795;55.684;37.864;2023-06-22T12:03:42;4.60;;;1.67;;
75207;SDS011;63795;55.684;37.864;2023-06-22T12:08:45;9.02;;;4.38;;
75207;SDS011;63795;55.684;37.864;2023-06-22T12:18:46;3.90;;;2.87;;
75207;SDS011;63795;55.684;37.864;2023-06-22T12:28:47;7.40;;;3.40;;
75207;SDS011;63795;55.684;37.864;2023-06-22T12:38:48;6.63;;;2.97;;
75207;SDS011;63795;55.684;37.864;2023-06-22T12:48:49;5.43;;;2.67;;
75207;SDS011;63795;55.684;37.864;2023-06-22T12:53:50;5.30;;;4.15;;
75207;SDS011;63795;55.684;37.864;2023-06-22T13:03:51;7.00;;;3.90;;
75207;SDS011;63795;55.684;37.864;2023-06-22T13:13:51;5.20;;;2.97;;
75207;SDS011;63795;55.684;37.864;2023-06-22T13:23:52;3.90;;;2.70;;
75207;SDS011;63795;55.684;37.864;2023-06-22T13:33:53;4.82;;;3.50;;
75207;SDS011;63795;55.684;37.864;2023-06-22T13:43:55;5.47;;;3.08;;
75207;SDS011;63795;55.684;37.864;2023-06-22T13:53:56;5.30;;;4.17;;
75207;SDS011;63795;55.684;37.864;2023-06-22T14:03:57;8.07;;;1.52;;
75207;SDS011;63795;55.684;37.864;2023-06-22T14:13:58;10.70;;;3.10;;
75207;SDS011;63795;55.684;37.864;2023-06-22T14:18:58;6.82;;;4.68;;
75207;SDS011;63795;55.684;37.864;2023-06-22T14:23:59;6.45;;;3.38;;
75207;SDS011;63795;55.684;37.864;2023-06-22T14:34:01;5.07;;;3.70;;
75207;SDS011;63795;55.684;37.864;2023-06-22T14:39:03;5.85;;;4.63;;
75207;SDS011;63795;55.684;37.864;2023-06-22T14:44:04;8.02;;;2.97;;
75207;SDS011;63795;55.684;37.864;2023-06-22T14:49:04;7.57;;;3.53;;
75207;SDS011;63795;55.684;37.864;2023-06-22T14:54:05;3.63;;;2.67;;
75207;SDS011;63795;55.684;37.864;2023-06-22T14:59:05;8.00;;;3.38;;
75207;SDS011;63795;55.684;37.864;2023-06-22T15:04:06;4.97;;;3.25;;
75207;SDS011;63795;55.684;37.864;2023-06-22T15:09:07;7.13;;;4.55;;
75207;SDS011;63795;55.684;37.864;2023-06-22T15:14:07;11.47;;;8.20;;
75207;SDS011;63795;55.684;37.864;2023-06-22T15:19:08;18.92;;;9.50;;
75207;SDS011;63795;55.684;37.864;2023-06-22T15:24:09;8.05;;;5.45;;
75207;SDS011;63795;55.684;37.864;2023-06-22T15:29:11;15.93;;;5.20;;
75207;SDS011;63795;55.684;37.864;2023-06-22T15:34:12;8.68;;;3.10;;
75207;SDS011;63795;55.684;37.864;2023-06-22T15:39:13;10.40;;;4.65;;
75207;SDS011;63795;55.684;37.864;2023-06-22T15:44:13;5.83;;;3.17;;
75207;SDS011;63795;55.684;37.864;2023-06-22T15:49:15;7.47;;;3.83;;
75207;SDS011;63795;55.684;37.864;2023-06-22T15:54:16;11.98;;;3.22;;
75207;SDS011;63795;55.684;37.864;2023-06-22T15:59:17;8.43;;;3.30;;
75207;SDS011;63795;55.684;37.864;2023-06-22T16:04:18;5.30;;;2.47;;
75207;SDS011;63795;55.684;37.864;2023-06-22T16:09:18;8.40;;;3.75;;
75207;SDS011;63795;55.684;37.864;2023-06-22T16:14:19;5.07;;;3.22;;
75207;SDS011;63795;55.684;37.864;2023-06-22T16:19:19;10.10;;;2.33;;
75207;SDS011;63795;55.684;37.864;2023-06-22T16:24:19;8.27;;;4.30;;
75207;SDS011;63795;55.684;37.864;2023-06-22T16:29:20;4.07;;;2.20;;
75207;SDS011;63795;55.684;37.864;2023-06-22T16:34:20;4.80;;;2.58;;
75207;SDS011;63795;55.684;37.864;2023-06-22T16:39:21;4.00;;;2.78;;
75207;SDS011;63795;55.684;37.864;2023-06-22T16:44:21;6.88;;;3.67;;
75207;SDS011;63795;55.684;37.864;2023-06-22T16:49:22;8.48;;;3.33;;
75207;SDS011;63795;55.684;37.864;2023-06-22T16:54:23;6.70;;;2.55;;
75207;SDS011;63795;55.684;37.864;2023-06-22T16:59:24;6.05;;;2.65;;
75207;SDS011;63795;55.684;37.864;2023-06-22T17:04:25;4.50;;;3.15;;
75207;SDS011;63795;55.684;37.864;2023-06-22T17:09:29;8.25;;;5.10;;
75207;SDS011;63795;55.684;37.864;2023-06-22T17:14:31;9.23;;;5.40;;
75207;SDS011;63795;55.684;37.864;2023-06-22T17:19:31;5.03;;;2.05;;
75207;SDS011;63795;55.684;37.864;2023-06-22T17:24:32;5.00;;;2.53;;
75207;SDS011;63795;55.684;37.864;2023-06-22T17:29:33;4.40;;;3.90;;
75207;SDS011;63795;55.684;37.864;2023-06-22T17:34:34;5.57;;;1.92;;
75207;SDS011;63795;55.684;37.864;2023-06-22T17:39:35;3.60;;;1.85;;
75207;SDS011;63795;55.684;37.864;2023-06-22T17:44:36;7.70;;;1.55;;
75207;SDS011;63795;55.684;37.864;2023-06-22T17:49:36;3.83;;;2.20;;
75207;SDS011;63795;55.684;37.864;2023-06-22T17:54:38;9.35;;;2.38;;
75207;SDS011;63795;55.684;37.864;2023-06-22T17:59:39;4.30;;;1.15;;
75207;SDS011;63795;55.684;37.864;2023-06-22T18:04:40;4.30;;;1.33;;
75207;SDS011;63795;55.684;37.864;2023-06-22T18:09:41;6.43;;;2.50;;
75207;SDS011;63795;55.684;37.864;2023-06-22T18:14:41;3.40;;;2.55;;
75207;SDS011;63795;55.684;37.864;2023-06-22T18:19:42;6.18;;;3.03;;
75207;SDS011;63795;55.684;37.864;2023-06-22T18:24:44;5.53;;;2.50;;
75207;SDS011;63795;55.684;37.864;2023-06-22T18:29:47;6.03;;;2.88;;
75207;SDS011;63795;55.684;37.864;2023-06-22T18:34:49;3.95;;;2.85;;
75207;SDS011;63795;55.684;37.864;2023-06-22T18:39:54;4.00;;;2.03;;
75207;SDS011;63795;55.684;37.864;2023-06-22T18:44:56;6.47;;;3.40;;
75207;SDS011;63795;55.684;37.864;2023-06-22T18:50:07;7.20;;;3.03;;
75207;SDS011;63795;55.684;37.864;2023-06-22T18:55:11;10.07;;;3.20;;
75207;SDS011;63795;55.684;37.864;2023-06-22T19:00:14;8.40;;;3.70;;
75207;SDS011;63795;55.684;37.864;2023-06-22T19:05:15;4.18;;;2.70;;
75207;SDS011;63795;55.684;37.864;2023-06-22T19:15:32;5.53;;;2.38;;
75207;SDS011;63795;55.684;37.864;2023-06-22T19:20:33;4.07;;;3.03;;
75207;SDS011;63795;55.684;37.864;2023-06-22T19:25:35;7.25;;;2.72;;
75207;SDS011;63795;55.684;37.864;2023-06-22T19:30:36;11.63;;;6.10;;
75207;SDS011;63795;55.684;37.864;2023-06-22T19:35:38;3.97;;;1.83;;
75207;SDS011;63795;55.684;37.864;2023-06-22T19:40:40;3.85;;;2.33;;
75207;SDS011;63795;55.684;37.864;2023-06-22T19:45:41;26.75;;;12.65;;
75207;SDS011;63795;55.684;37.864;2023-06-22T19:50:42;6.68;;;2.80;;
75207;SDS011;63795;55.684;37.864;2023-06-22T19:55:43;3.25;;;1.45;;
75207;SDS011;63795;55.684;37.864;2023-06-22T20:00:48;6.30;;;4.15;;
75207;SDS011;63795;55.684;37.864;2023-06-22T20:05:53;4.75;;;4.32;;
75207;SDS011;63795;55.684;37.864;2023-06-22T20:10:54;5.55;;;2.35;;
75207;SDS011;63795;55.684;37.864;2023-06-22T20:15:58;3.78;;;1.55;;
75207;SDS011;63795;55.684;37.864;2023-06-22T20:21:11;6.05;;;2.53;;
75207;SDS011;63795;55.684;37.864;2023-06-22T20:26:13;3.40;;;1.02;;
75207;SDS011;63795;55.684;37.864;2023-06-22T20:31:16;5.90;;;2.97;;
75207;SDS011;63795;55.684;37.864;2023-06-22T20:36:17;8.88;;;3.03;;
75207;SDS011;63795;55.684;37.864;2023-06-22T20:41:18;9.05;;;4.97;;
75207;SDS011;63795;55.684;37.864;2023-06-22T20:46:18;6.50;;;3.47;;
75207;SDS011;63795;55.684;37.864;2023-06-22T20:51:19;9.03;;;3.57;;
75207;SDS011;63795;55.684;37.864;2023-06-22T20:56:19;6.45;;;2.85;;
75207;SDS011;63795;55.684;37.864;2023-06-22T21:01:19;5.72;;;2.97;;
75207;SDS011;63795;55.684;37.864;2023-06-22T21:06:20;6.50;;;3.53;;
75207;SDS011;63795;55.684;37.864;2023-06-22T21:11:21;8.97;;;5.23;;
75207;SDS011;63795;55.684;37.864;2023-06-22T21:16:21;7.93;;;3.85;;
75207;SDS011;63795;55.684;37.864;2023-06-22T21:21:22;7.57;;;3.20;;
75207;SDS011;63795;55.684;37.864;2023-06-22T21:26:22;7.68;;;4.57;;
75207;SDS011;63795;55.684;37.864;2023-06-22T21:31:23;9.27;;;4.85;;
75207;SDS011;63795;55.684;37.864;2023-06-22T21:36:23;6.45;;;2.95;;
75207;SDS011;63795;55.684;37.864;2023-06-22T21:41:24;7.60;;;3.15;;
75207;SDS011;63795;55.684;37.864;2023-06-22T21:46:24;7.38;;;3.10;;
75207;SDS011;63795;55.684;37.864;2023-06-22T21:51:25;7.73;;;5.53;;
75207;SDS011;63795;55.684;37.864;2023-06-22T21:56:26;5.50;;;2.97;;
75207;SDS011;63795;55.684;37.864;2023-06-22T22:01:26;7.65;;;4.07;;
75207;SDS011;63795;55.684;37.864;2023-06-22T22:06:27;4.60;;;2.10;;
75207;SDS011;63795;55.684;37.864;2023-06-22T22:11:30;9.15;;;4.90;;
75207;SDS011;63795;55.684;37.864;2023-06-22T22:16:31;9.23;;;5.47;;
75207;SDS011;63795;55.684;37.864;2023-06-22T22:21:31;5.13;;;2.20;;
75207;SDS011;63795;55.684;37.864;2023-06-22T22:26:31;7.30;;;4.47;;
75207;SDS011;63795;55.684;37.864;2023-06-22T22:31:32;3.30;;;2.25;;
75207;SDS011;63795;55.684;37.864;2023-06-22T22:36:38;6.72;;;3.28;;
75207;SDS011;63795;55.684;37.864;2023-06-22T22:41:41;4.97;;;3.53;;
75207;SDS011;63795;55.684;37.864;2023-06-22T22:46:42;5.65;;;2.63;;
75207;SDS011;63795;55.684;37.864;2023-06-22T22:51:42;2.63;;;2.20;;
75207;SDS011;63795;55.684;37.864;2023-06-22T22:56:43;4.63;;;2.50;;
75207;SDS011;63795;55.684;37.864;2023-06-22T23:01:43;4.93;;;3.07;;
75207;SDS011;63795;55.684;37.864;2023-06-22T23:06:44;4.90;;;2.10;;
75207;SDS011;63795;55.684;37.864;2023-06-22T23:11:44;5.97;;;4.53;;
75207;SDS011;63795;55.684;37.864;2023-06-22T23:16:45;3.55;;;1.73;;
75207;SDS011;63795;55.684;37.864;2023-06-22T23:21:46;3.42;;;1.65;;
75207;SDS011;63795;55.684;37.864;2023-06-22T23:26:48;5.88;;;2.25;;
75207;SDS011;63795;55.684;37.864;2023-06-22T23:31:49;4.33;;;2.27;;
75207;SDS011;63795;55.684;37.864;2023-06-22T23:36:51;4.18;;;1.00;;
75207;SDS011;63795;55.684;37.864;2023-06-22T23:41:52;3.25;;;1.70;;
75207;SDS011;63795;55.684;37.864;2023-06-22T23:46:53;3.08;;;2.42;;
75207;SDS011;63795;55.684;37.864;2023-06-22T23:51:54;5.50;;;2.20;;
75207;SDS011;63795;55.684;37.864;2023-06-22T23:56:54;3.40;;;1.85;;
